Terminal Aerodrome Forecast
Issued by NWS

Home | Current Version | Previous Version | Text Only | Print | Product List | Glossary On
Versions: 1 2 3 4 5 6 7 8 9 10 11 12 13 14
000
FTUS45 KRIW 030500
TAFJAC
TAF
KJAC 030534Z 0306/0406 VRB06KT 1 1/2SM -SN SCT006 OVC015
     FM031400 36013KT 5SM -SN BKN024
     FM031700 34011KT P6SM SCT025
     FM040000 36012KT P6SM FEW060
      AMD LTD TO CLD VIS AND WIND=

USA.gov is the U.S. government's official web portal to all federal, state and local government web resources and services.